Time;durP1;ratioP1;P1;durP2;ratioP2;P2;SDS_P1;SDS_P2;PMS_P1;PMS_P2;Temp;Humidity;BMP_temperature;BMP_pressure;BME280_temperature;BME280_humidity;BME280_pressure;Samples;Min_cycle;Max_cycle;Signal;HPM_P1;HPM_P2
2022/06/26 00:01:21;;;;;;;11.48;7.50;;;18.10;99.90;;;;;;4996994;28;20492;-71
2022/06/26 00:03:46;;;;;;;14.02;7.18;;;18.10;99.90;;;;;;5015600;28;20545;-71
2022/06/26 00:06:12;;;;;;;9.60;6.65;;;18.10;99.90;;;;;;5015780;28;20060;-71
2022/06/26 00:08:38;;;;;;;13.77;7.88;;;18.10;99.90;;;;;;4998179;28;20451;-70
2022/06/26 00:11:04;;;;;;;13.38;7.97;;;18.10;99.90;;;;;;4998419;28;20049;-71
2022/06/26 00:13:30;;;;;;;12.25;7.68;;;18.10;99.90;;;;;;5015259;28;20045;-71
2022/06/26 00:15:56;;;;;;;12.80;7.18;;;18.00;99.90;;;;;;4997911;28;20143;-71
2022/06/26 00:18:21;;;;;;;10.25;7.00;;;18.10;99.90;;;;;;4980974;28;20090;-70
2022/06/26 00:20:47;;;;;;;10.45;6.57;;;18.10;99.90;;;;;;5015319;28;20046;-70
2022/06/26 00:23:13;;;;;;;9.98;6.65;;;18.10;99.90;;;;;;4998507;28;20046;-70
2022/06/26 00:25:38;;;;;;;13.35;7.72;;;18.00;99.90;;;;;;5015477;28;20046;-71
2022/06/26 00:28:04;;;;;;;10.95;7.00;;;18.00;99.90;;;;;;4998105;28;20053;-71
2022/06/26 00:30:30;;;;;;;9.77;7.90;;;18.00;99.90;;;;;;4997274;28;20403;-70
2022/06/26 00:32:55;;;;;;;10.75;7.88;;;18.00;99.90;;;;;;5015372;28;20068;-70
2022/06/26 00:35:21;;;;;;;12.13;7.97;;;17.90;99.90;;;;;;4997513;28;20124;-71
2022/06/26 00:37:47;;;;;;;12.10;7.35;;;18.00;99.90;;;;;;4998240;28;20474;-70
2022/06/26 00:40:12;;;;;;;14.55;9.60;;;18.00;99.90;;;;;;5015187;28;20058;-71
2022/06/26 00:42:38;;;;;;;11.88;7.55;;;17.80;99.90;;;;;;5015267;28;20041;-71
2022/06/26 00:45:05;;;;;;;14.35;8.20;;;17.90;99.90;;;;;;4997485;28;20050;-69
2022/06/26 00:47:31;;;;;;;13.30;7.90;;;17.80;99.90;;;;;;5014816;28;20074;-70
2022/06/26 00:49:57;;;;;;;12.10;8.05;;;17.80;99.90;;;;;;4998336;28;20061;-71
2022/06/26 00:52:23;;;;;;;12.65;8.70;;;17.80;99.90;;;;;;4997878;28;20093;-71
2022/06/26 00:54:50;;;;;;;13.23;7.72;;;17.80;99.90;;;;;;4997818;28;20085;-71
2022/06/26 00:57:17;;;;;;;14.00;8.55;;;17.80;99.90;;;;;;4997269;28;20081;-71
2022/06/26 00:59:43;;;;;;;13.98;8.55;;;17.80;99.90;;;;;;5015196;28;20100;-71
2022/06/26 01:02:09;;;;;;;14.45;9.70;;;17.70;99.90;;;;;;4997046;28;20121;-70
2022/06/26 01:04:34;;;;;;;13.30;8.27;;;17.80;99.90;;;;;;5014447;28;20378;-71
2022/06/26 01:07:00;;;;;;;10.93;8.38;;;17.70;99.90;;;;;;5014285;28;20049;-71
2022/06/26 01:09:26;;;;;;;14.15;8.60;;;17.70;99.90;;;;;;5014984;28;20465;-70
2022/06/26 01:11:53;;;;;;;9.55;7.70;;;17.70;99.90;;;;;;4997450;28;20048;-70
2022/06/26 01:14:20;;;;;;;10.32;7.70;;;17.70;99.90;;;;;;5014631;28;20092;-70
2022/06/26 01:16:46;;;;;;;12.40;8.20;;;17.70;99.90;;;;;;4997877;28;20123;-71
2022/06/26 01:19:15;;;;;;;10.50;7.65;;;17.80;99.90;;;;;;4998053;28;20049;-70
2022/06/26 01:21:40;;;;;;;12.18;8.05;;;17.70;99.90;;;;;;5012945;28;20041;-70
2022/06/26 01:24:06;;;;;;;14.95;9.63;;;17.80;99.90;;;;;;5014321;28;20056;-71
2022/06/26 01:26:32;;;;;;;12.30;9.35;;;17.80;99.90;;;;;;4997122;28;20050;-70
2022/06/26 01:28:58;;;;;;;11.18;7.90;;;17.90;99.90;;;;;;4997923;28;20489;-70
2022/06/26 01:31:23;;;;;;;12.60;8.75;;;17.90;99.90;;;;;;5014976;28;20118;-70
2022/06/26 01:33:49;;;;;;;11.90;8.63;;;18.00;99.90;;;;;;5014628;28;20156;-71
2022/06/26 01:36:16;;;;;;;11.27;7.35;;;18.10;99.90;;;;;;4997176;28;20038;-71
2022/06/26 01:38:42;;;;;;;14.52;9.60;;;18.10;99.90;;;;;;4996535;28;20054;-70
2022/06/26 01:41:08;;;;;;;13.27;9.02;;;18.20;99.90;;;;;;4996990;28;20057;-70
2022/06/26 01:43:36;;;;;;;14.13;8.57;;;18.20;99.90;;;;;;5014419;28;20046;-70
2022/06/26 01:46:02;;;;;;;15.63;9.00;;;18.20;99.90;;;;;;5014512;28;20100;-71
2022/06/26 01:48:30;;;;;;;14.68;9.20;;;18.30;99.90;;;;;;5016990;28;20046;-71
2022/06/26 01:50:58;;;;;;;9.90;7.50;;;18.30;99.90;;;;;;5017821;28;20133;-71
2022/06/26 01:53:25;;;;;;;11.10;8.25;;;18.20;99.90;;;;;;5000364;28;20054;-70
2022/06/26 01:55:51;;;;;;;17.13;8.60;;;18.30;99.90;;;;;;5017679;28;20096;-71
2022/06/26 01:58:17;;;;;;;12.25;7.82;;;18.30;99.90;;;;;;5001362;28;20042;-70
2022/06/26 02:00:44;;;;;;;12.48;7.18;;;18.30;99.90;;;;;;5018143;28;20362;-71
2022/06/26 02:03:10;;;;;;;12.90;7.43;;;18.30;99.90;;;;;;5018075;28;20038;-71
2022/06/26 02:05:36;;;;;;;12.27;7.78;;;18.20;99.90;;;;;;4999944;28;20052;-70
2022/06/26 02:08:03;;;;;;;9.68;6.50;;;18.30;99.90;;;;;;5018039;28;20323;-71
2022/06/26 02:15:59;;;;;;;11.07;7.68;;;18.30;99.90;;;;;;5000142;28;20144;-71
2022/06/26 02:18:25;;;;;;;14.63;7.80;;;18.30;99.90;;;;;;5000199;28;20459;-70
2022/06/26 02:20:51;;;;;;;14.30;7.80;;;18.40;99.90;;;;;;5000088;28;20144;-72
2022/06/26 02:23:17;;;;;;;10.27;6.68;;;18.40;99.90;;;;;;5000332;28;20502;-70
2022/06/26 02:25:43;;;;;;;10.77;6.68;;;18.40;99.90;;;;;;5000921;28;20069;-71
2022/06/26 02:28:10;;;;;;;9.23;7.15;;;18.50;99.90;;;;;;5000106;28;20472;-71
2022/06/26 02:30:36;;;;;;;14.18;8.05;;;18.50;99.90;;;;;;5017770;28;20065;-70
2022/06/26 02:33:03;;;;;;;9.48;5.95;;;18.50;99.90;;;;;;5017622;28;20501;-69
2022/06/26 02:35:29;;;;;;;14.30;7.50;;;18.50;99.90;;;;;;5016586;28;20053;-71
2022/06/26 02:37:56;;;;;;;14.32;7.38;;;18.50;99.90;;;;;;5000413;28;20060;-70
2022/06/26 02:40:24;;;;;;;14.20;8.32;;;18.40;99.90;;;;;;4999763;28;20041;-70
2022/06/26 02:42:50;;;;;;;11.85;7.32;;;18.40;99.90;;;;;;5017575;28;20065;-70
2022/06/26 02:45:16;;;;;;;11.13;7.43;;;18.40;99.90;;;;;;5000527;28;20065;-69
2022/06/26 02:47:42;;;;;;;13.75;8.07;;;18.40;99.90;;;;;;5000479;28;20042;-69
2022/06/26 02:50:08;;;;;;;10.15;6.43;;;18.30;99.90;;;;;;5016462;28;20061;-69
2022/06/26 02:52:34;;;;;;;11.70;7.07;;;18.30;99.90;;;;;;4996760;28;20054;-69
2022/06/26 02:55:00;;;;;;;11.80;6.18;;;18.20;99.90;;;;;;4999557;28;20057;-69
2022/06/26 02:57:26;;;;;;;8.57;5.85;;;18.20;99.90;;;;;;5016950;28;20061;-72
2022/06/26 02:59:52;;;;;;;11.60;5.90;;;18.10;99.90;;;;;;4998947;28;20394;-70
2022/06/26 03:02:18;;;;;;;9.75;6.05;;;18.20;99.90;;;;;;4999296;28;20121;-69
2022/06/26 03:04:44;;;;;;;8.70;5.40;;;18.10;99.90;;;;;;4999337;28;20378;-69
2022/06/26 03:07:09;;;;;;;9.45;5.18;;;18.10;99.90;;;;;;4999273;28;20048;-69
2022/06/26 03:09:35;;;;;;;6.28;4.22;;;18.10;99.90;;;;;;4999996;28;20163;-70
2022/06/26 03:12:01;;;;;;;9.48;4.50;;;18.10;99.90;;;;;;4999722;28;20125;-70
2022/06/26 03:14:26;;;;;;;7.78;4.15;;;18.00;99.90;;;;;;5016707;28;20050;-69
2022/06/26 03:16:52;;;;;;;7.28;3.97;;;18.00;99.90;;;;;;4999467;28;20081;-70
2022/06/26 03:19:18;;;;;;;5.18;3.50;;;17.90;99.90;;;;;;5016511;28;20061;-71
2022/06/26 03:21:43;;;;;;;9.07;3.80;;;17.90;99.90;;;;;;5015563;28;20374;-70
2022/06/26 03:24:09;;;;;;;8.30;3.58;;;17.80;99.90;;;;;;4998975;28;20065;-69
2022/06/26 03:26:36;;;;;;;6.90;3.47;;;17.90;99.90;;;;;;5015996;28;20038;-71
2022/06/26 03:29:05;;;;;;;7.63;3.40;;;17.80;99.90;;;;;;4998881;28;20100;-70
2022/06/26 03:31:31;;;;;;;8.35;3.40;;;17.90;99.90;;;;;;4999186;28;20092;-69
2022/06/26 03:33:57;;;;;;;4.82;3.17;;;17.90;99.90;;;;;;5015569;28;20351;-69
2022/06/26 03:36:23;;;;;;;4.88;3.00;;;17.90;99.90;;;;;;5015540;28;20052;-69
2022/06/26 03:38:49;;;;;;;6.45;3.20;;;17.80;99.90;;;;;;5016186;28;20103;-72
2022/06/26 03:41:15;;;;;;;6.57;3.55;;;17.80;99.90;;;;;;4998785;28;20120;-69
2022/06/26 03:43:41;;;;;;;10.52;3.58;;;17.90;99.90;;;;;;5016158;28;20137;-71
2022/06/26 03:46:07;;;;;;;4.65;3.20;;;17.80;99.90;;;;;;4998021;28;20332;-70
2022/06/26 03:48:33;;;;;;;4.50;3.00;;;17.80;99.90;;;;;;4998627;28;20089;-69
2022/06/26 03:50:58;;;;;;;6.50;3.10;;;17.80;99.90;;;;;;4998240;28;20134;-69
2022/06/26 03:53:24;;;;;;;10.63;3.13;;;17.80;99.90;;;;;;4998225;28;20481;-70
2022/06/26 03:55:50;;;;;;;4.30;2.90;;;17.80;99.90;;;;;;4998623;28;20046;-69
2022/06/26 03:58:16;;;;;;;5.38;2.80;;;17.80;99.90;;;;;;5013020;28;20052;-70
2022/06/26 04:00:42;;;;;;;5.50;2.60;;;17.70;99.90;;;;;;4997612;28;20466;-70
2022/06/26 04:03:08;;;;;;;6.43;3.17;;;17.70;99.90;;;;;;4998120;28;20129;-70
2022/06/26 04:05:35;;;;;;;8.18;2.97;;;17.80;99.90;;;;;;5015476;28;20045;-69
2022/06/26 04:08:01;;;;;;;5.43;2.92;;;17.70;99.90;;;;;;4998076;28;20054;-69
2022/06/26 04:10:27;;;;;;;6.00;2.58;;;17.80;99.90;;;;;;4997956;28;20053;-70
2022/06/26 04:12:52;;;;;;;4.07;2.20;;;17.80;99.90;;;;;;5014504;28;20517;-70
2022/06/26 04:15:18;;;;;;;3.55;2.38;;;17.70;99.90;;;;;;4997501;28;20072;-69
2022/06/26 04:17:44;;;;;;;4.95;2.78;;;17.70;99.90;;;;;;4996715;28;20474;-69
2022/06/26 04:20:10;;;;;;;5.40;2.22;;;17.70;99.90;;;;;;4997994;28;20129;-69
2022/06/26 04:22:36;;;;;;;3.17;2.10;;;17.70;99.90;;;;;;4997693;28;20058;-69
2022/06/26 04:25:03;;;;;;;5.53;2.15;;;17.60;99.90;;;;;;5015425;28;20038;-69
2022/06/26 04:27:28;;;;;;;6.07;2.50;;;17.70;99.90;;;;;;4997693;28;20141;-69
2022/06/26 04:29:54;;;;;;;4.28;2.38;;;17.70;99.90;;;;;;5015506;28;20140;-71
2022/06/26 04:32:19;;;;;;;3.35;2.17;;;17.70;99.90;;;;;;5013969;28;20038;-70
2022/06/26 04:34:45;;;;;;;5.47;2.30;;;17.70;99.90;;;;;;4998117;28;20538;-70
2022/06/26 04:37:10;;;;;;;3.60;2.00;;;17.80;99.90;;;;;;4998606;28;20050;-70
2022/06/26 04:39:36;;;;;;;7.53;2.50;;;17.80;99.90;;;;;;4998100;28;20050;-71
2022/06/26 04:42:02;;;;;;;5.82;2.10;;;17.90;99.90;;;;;;4997931;28;20481;-69
2022/06/26 04:44:27;;;;;;;3.83;2.20;;;17.90;99.90;;;;;;5015168;28;20042;-70
2022/06/26 04:46:53;;;;;;;3.15;1.95;;;18.00;99.90;;;;;;4997497;28;20145;-69
2022/06/26 04:49:20;;;;;;;7.20;2.28;;;17.90;99.90;;;;;;4982005;28;20108;-69
2022/06/26 04:51:45;;;;;;;6.53;2.00;;;18.00;99.90;;;;;;5015218;28;20072;-69
2022/06/26 04:54:11;;;;;;;3.78;1.88;;;18.00;99.90;;;;;;4997940;28;20046;-69
2022/06/26 04:56:38;;;;;;;4.45;1.73;;;17.90;99.90;;;;;;4997965;28;20057;-70
2022/06/26 04:59:04;;;;;;;4.75;1.88;;;17.90;99.90;;;;;;5015129;28;20045;-70
2022/06/26 05:01:30;;;;;;;3.50;2.10;;;17.80;99.90;;;;;;4997178;28;20065;-68
2022/06/26 05:03:56;;;;;;;3.20;2.08;;;17.80;99.90;;;;;;4997887;28;20129;-68
2022/06/26 05:06:22;;;;;;;3.13;2.03;;;17.90;99.90;;;;;;5014825;28;20042;-70
2022/06/26 05:08:48;;;;;;;4.05;2.10;;;18.00;99.90;;;;;;4997719;28;20053;-70
2022/06/26 05:11:14;;;;;;;3.97;1.52;;;18.00;99.90;;;;;;5014967;28;20129;-70
2022/06/26 05:13:40;;;;;;;4.13;2.15;;;17.90;99.90;;;;;;4998089;28;20411;-70
2022/06/26 05:16:05;;;;;;;4.13;2.28;;;18.00;99.90;;;;;;4995910;28;20053;-69
2022/06/26 05:18:38;;;;;;;3.17;2.10;;;18.10;99.90;;;;;;5000795;28;20054;-69
2022/06/26 05:21:03;;;;;;;4.55;2.42;;;18.20;99.90;;;;;;5015481;28;20038;-72
2022/06/26 05:23:29;;;;;;;7.07;3.03;;;18.30;99.90;;;;;;4999787;28;20352;-71
2022/06/26 05:25:55;;;;;;;3.70;2.10;;;18.50;99.90;;;;;;5018204;28;20092;-69
2022/06/26 05:28:20;;;;;;;3.78;2.50;;;18.60;99.90;;;;;;5002826;28;20054;-69
2022/06/26 05:30:46;;;;;;;3.40;2.10;;;18.80;99.90;;;;;;5000179;28;20045;-69
2022/06/26 05:33:11;;;;;;;5.25;2.53;;;18.90;99.90;;;;;;4996752;28;20054;-69
2022/06/26 05:35:37;;;;;;;7.28;2.80;;;19.00;99.90;;;;;;5000103;28;20046;-70
2022/06/26 05:38:04;;;;;;;3.90;2.47;;;19.00;99.90;;;;;;4999974;28;20042;-69
2022/06/26 05:40:30;;;;;;;3.45;2.42;;;19.00;99.90;;;;;;5016957;28;20056;-70
2022/06/26 05:42:56;;;;;;;3.65;2.40;;;19.00;99.90;;;;;;5013306;28;20042;-69
2022/06/26 05:45:22;;;;;;;4.40;2.53;;;18.90;99.90;;;;;;5005065;28;20473;-69
2022/06/26 05:47:48;;;;;;;5.53;2.58;;;18.90;99.90;;;;;;5006144;28;20046;-69
2022/06/26 05:50:14;;;;;;;4.05;2.30;;;18.80;99.90;;;;;;5005730;28;20080;-68
2022/06/26 05:52:40;;;;;;;3.80;2.60;;;18.80;99.90;;;;;;5005102;28;20125;-68
2022/06/26 05:55:07;;;;;;;10.65;2.80;;;18.70;99.90;;;;;;5000258;28;20474;-70
2022/06/26 05:57:33;;;;;;;6.20;3.00;;;18.80;99.90;;;;;;5017719;28;20038;-68
2022/06/26 05:59:58;;;;;;;4.75;2.97;;;18.80;99.90;;;;;;5000026;28;20104;-70
2022/06/26 06:02:24;;;;;;;8.85;3.58;;;18.80;99.90;;;;;;5017446;28;20048;-69
2022/06/26 06:04:50;;;;;;;7.32;3.17;;;18.90;99.90;;;;;;5000700;28;20065;-68
2022/06/26 06:07:15;;;;;;;5.10;3.20;;;18.90;99.90;;;;;;5000550;28;20533;-69
2022/06/26 06:09:41;;;;;;;5.32;3.30;;;19.00;99.90;;;;;;5001035;28;20049;-69
2022/06/26 06:12:07;;;;;;;5.78;3.72;;;19.10;99.90;;;;;;5000273;28;20050;-69
2022/06/26 06:14:32;;;;;;;7.35;3.58;;;19.20;99.90;;;;;;5000053;28;20061;-68
2022/06/26 06:17:35;;;;;;;5.13;3.63;;;19.20;99.90;;;;;;4999798;28;20042;-68
2022/06/26 06:19:43;;;;;;;8.52;3.63;;;19.30;99.90;;;;;;5000048;28;20050;-69
2022/06/26 06:22:09;;;;;;;8.52;4.20;;;19.30;99.90;;;;;;5030963;28;20472;-68
2022/06/26 06:24:34;;;;;;;6.88;3.80;;;19.40;99.90;;;;;;5036994;28;20084;-69
2022/06/26 06:27:00;;;;;;;7.65;4.20;;;19.50;99.90;;;;;;5020008;28;20148;-69
2022/06/26 06:29:25;;;;;;;6.75;4.75;;;19.60;99.90;;;;;;5019758;28;20351;-70
2022/06/26 06:31:51;;;;;;;7.18;4.68;;;19.70;99.90;;;;;;5002219;28;20060;-69
2022/06/26 06:34:17;;;;;;;8.07;5.15;;;20.00;99.90;;;;;;5005986;28;20076;-69
2022/06/26 06:36:42;;;;;;;9.75;5.25;;;20.30;99.90;;;;;;5017349;28;20096;-68
2022/06/26 06:39:08;;;;;;;8.20;5.03;;;20.50;99.90;;;;;;4999906;28;20046;-69
2022/06/26 06:41:33;;;;;;;7.75;5.10;;;20.70;99.90;;;;;;4999673;28;20521;-69
2022/06/26 06:43:59;;;;;;;9.70;5.28;;;21.00;99.90;;;;;;5000156;28;20129;-69
2022/06/26 06:46:24;;;;;;;8.57;6.00;;;21.20;99.90;;;;;;4999003;28;20369;-69
2022/06/26 06:48:50;;;;;;;8.43;5.68;;;21.30;99.90;;;;;;5016558;28;20137;-69
2022/06/26 06:51:15;;;;;;;8.38;5.07;;;21.40;99.90;;;;;;4998986;28;20061;-69
2022/06/26 06:53:41;;;;;;;9.75;5.30;;;21.40;99.90;;;;;;4999957;28;20466;-69
2022/06/26 06:56:07;;;;;;;9.38;6.47;;;21.40;99.90;;;;;;4999062;28;20050;-69
2022/06/26 06:58:32;;;;;;;9.70;6.38;;;21.40;99.90;;;;;;4991774;28;20046;-69
2022/06/26 07:00:58;;;;;;;12.18;6.38;;;21.30;99.90;;;;;;5008029;28;20153;-70
2022/06/26 07:03:24;;;;;;;10.07;6.22;;;21.10;99.90;;;;;;4981656;28;20111;-69
2022/06/26 07:05:49;;;;;;;10.25;6.07;;;20.90;99.90;;;;;;4993140;28;20358;-69
2022/06/26 07:08:15;;;;;;;10.68;6.38;;;20.70;99.90;;;;;;5010392;28;20361;-69
2022/06/26 07:10:40;;;;;;;11.90;6.95;;;20.60;99.90;;;;;;5016198;28;20044;-69
2022/06/26 07:13:06;;;;;;;10.65;6.53;;;20.60;99.90;;;;;;5016417;28;20058;-70
2022/06/26 07:15:31;;;;;;;11.20;7.95;;;20.70;99.90;;;;;;4999171;28;20042;-69
2022/06/26 07:17:57;;;;;;;11.95;8.48;;;20.70;99.90;;;;;;4998287;28;20041;-69
2022/06/26 07:20:23;;;;;;;14.50;8.32;;;20.70;99.90;;;;;;4999245;28;20107;-68
2022/06/26 07:22:49;;;;;;;12.48;7.72;;;20.60;99.90;;;;;;4998845;28;20120;-69
2022/06/26 07:25:14;;;;;;;18.05;8.35;;;20.70;99.90;;;;;;4999429;28;20046;-70
2022/06/26 07:27:40;;;;;;;10.57;7.03;;;20.90;99.90;;;;;;5015921;28;20046;-69
2022/06/26 07:30:06;;;;;;;8.82;6.25;;;21.30;99.90;;;;;;4998850;28;20048;-69
2022/06/26 07:32:32;;;;;;;10.50;7.32;;;21.50;99.90;;;;;;4999377;28;20463;-69
2022/06/26 07:34:58;;;;;;;11.98;7.97;;;21.70;99.90;;;;;;4998582;28;20046;-69
2022/06/26 07:37:24;;;;;;;12.20;7.70;;;21.80;99.90;;;;;;4998982;28;20049;-69
2022/06/26 07:39:49;;;;;;;14.27;8.15;;;21.90;99.90;;;;;;5015371;28;20054;-69
2022/06/26 07:42:15;;;;;;;11.75;7.35;;;22.50;99.90;;;;;;5018177;28;20083;-70
2022/06/26 07:44:41;;;;;;;11.45;6.30;;;22.70;99.90;;;;;;5033646;28;20351;-68
2022/06/26 07:47:06;;;;;;;14.18;7.78;;;22.80;99.90;;;;;;5015370;28;20038;-69
2022/06/26 07:49:32;;;;;;;10.75;7.10;;;22.90;99.90;;;;;;4997422;28;20470;-70
2022/06/26 07:51:57;;;;;;;10.38;6.40;;;23.80;99.90;;;;;;4998200;28;20050;-69
2022/06/26 07:54:23;;;;;;;11.00;6.97;;;24.90;99.90;;;;;;5015954;28;20108;-70
2022/06/26 07:56:50;;;;;;;10.27;6.97;;;25.60;99.90;;;;;;5015377;28;20046;-71
2022/06/26 07:59:15;;;;;;;9.77;6.32;;;25.80;99.90;;;;;;4999529;28;20057;-69
2022/06/26 08:01:41;;;;;;;9.73;5.78;;;26.40;99.90;;;;;;5014902;28;20046;-69
2022/06/26 08:04:07;;;;;;;10.63;6.25;;;26.70;99.90;;;;;;4998450;28;20045;-69
2022/06/26 08:06:33;;;;;;;9.93;5.57;;;26.70;99.90;;;;;;4997212;28;20046;-69
2022/06/26 08:08:59;;;;;;;7.45;5.82;;;27.40;99.90;;;;;;4997847;28;20398;-70
2022/06/26 08:11:25;;;;;;;9.85;6.57;;;27.80;99.90;;;;;;4998124;28;20041;-69
2022/06/26 08:13:50;;;;;;;7.38;5.22;;;28.40;99.90;;;;;;4997573;28;20081;-69
2022/06/26 08:16:16;;;;;;;8.88;4.95;;;28.70;99.90;;;;;;5014976;28;20041;-70
2022/06/26 08:18:42;;;;;;;11.95;6.00;;;28.50;99.90;;;;;;4997680;28;20045;-69
2022/06/26 08:23:53;;;;;;;8.02;5.07;;;28.40;99.90;;;;;;4997444;28;20090;-70
2022/06/26 08:26:18;;;;;;;6.28;4.70;;;28.30;99.90;;;;;;4998004;28;20054;-70
2022/06/26 08:28:44;;;;;;;6.97;4.60;;;28.00;99.90;;;;;;4997784;28;20088;-69
2022/06/26 08:31:10;;;;;;;6.00;4.75;;;27.40;99.90;;;;;;4997395;28;20458;-70
2022/06/26 08:33:35;;;;;;;6.45;4.13;;;27.80;99.90;;;;;;4998469;28;20041;-70
2022/06/26 08:36:01;;;;;;;8.48;4.25;;;27.70;99.90;;;;;;5015000;28;20042;-69
2022/06/26 08:38:27;;;;;;;6.32;3.38;;;27.70;99.90;;;;;;4997811;28;20525;-72
2022/06/26 08:40:53;;;;;;;4.65;3.10;;;27.60;99.90;;;;;;4997048;28;20045;-70
2022/06/26 08:43:21;;;;;;;11.10;3.70;;;28.00;99.90;;;;;;5015443;28;20045;-71
2022/06/26 08:45:50;;;;;;;4.60;2.83;;;28.00;99.90;;;;;;5014426;28;20057;-69
2022/06/26 08:48:19;;;;;;;4.57;3.10;;;28.50;99.90;;;;;;4997298;28;20057;-70
2022/06/26 08:50:44;;;;;;;6.25;3.10;;;28.60;99.90;;;;;;4996606;28;20065;-70
2022/06/26 08:53:11;;;;;;;5.10;2.45;;;28.30;99.90;;;;;;5014875;28;20049;-70
2022/06/26 08:55:37;;;;;;;5.22;2.60;;;28.20;99.90;;;;;;5014363;28;20072;-70
2022/06/26 08:58:03;;;;;;;3.90;2.40;;;27.70;99.50;;;;;;5001010;28;20450;-70
2022/06/26 09:00:30;;;;;;;5.10;2.42;;;27.80;99.90;;;;;;5019061;28;20060;-70
2022/06/26 09:02:56;;;;;;;4.40;1.88;;;27.90;99.90;;;;;;5019360;28;20045;-71
2022/06/26 09:05:21;;;;;;;3.88;1.70;;;28.30;99.90;;;;;;5001559;28;20451;-70
2022/06/26 09:07:52;;;;;;;2.72;1.73;;;28.90;99.90;;;;;;5000615;28;20053;-70
2022/06/26 09:10:19;;;;;;;4.15;1.95;;;29.10;99.20;;;;;;5000984;28;20096;-71
2022/06/26 09:12:56;;;;;;;4.05;1.73;;;28.70;99.90;;;;;;5001576;28;20056;-70
2022/06/26 09:15:24;;;;;;;3.60;1.80;;;28.30;99.90;;;;;;5018501;28;20046;-70
2022/06/26 09:17:57;;;;;;;3.70;2.13;;;27.60;99.60;;;;;;5018454;28;20081;-70
2022/06/26 09:20:23;;;;;;;2.72;1.80;;;27.50;99.90;;;;;;5000462;28;20095;-69
2022/06/26 09:22:56;;;;;;;4.38;1.98;;;26.90;99.80;;;;;;5000594;28;20057;-69
2022/06/26 09:25:45;;;;;;;4.78;1.70;;;26.40;99.90;;;;;;5000308;28;20048;-70
2022/06/26 09:28:20;;;;;;;3.33;2.00;;;26.40;99.90;;;;;;5018320;28;20088;-72
2022/06/26 09:30:56;;;;;;;2.72;1.63;;;26.30;99.90;;;;;;5018191;28;20354;-71
2022/06/26 09:33:27;;;;;;;4.03;1.80;;;26.10;99.90;;;;;;5001637;28;20049;-69
2022/06/26 09:35:54;;;;;;;4.70;1.42;;;26.20;99.90;;;;;;5001300;28;20100;-70
2022/06/26 09:38:27;;;;;;;3.35;1.50;;;26.30;99.90;;;;;;5002358;28;20100;-71
2022/06/26 09:40:57;;;;;;;;;;;26.30;99.90;;;;;;4943677;29;20126;-70
2022/06/26 09:43:32;;;;;;;3.58;1.55;;;26.30;99.90;;;;;;4941118;29;19922;-71
2022/06/26 09:46:05;;;;;;;3.58;1.70;;;26.40;99.90;;;;;;4957175;29;20087;-70
2022/06/26 09:48:32;;;;;;;4.45;1.50;;;26.40;99.90;;;;;;4957545;29;20047;-70
2022/06/26 09:50:58;;;;;;;3.22;1.30;;;26.50;99.90;;;;;;4941100;29;20043;-70
2022/06/26 09:53:25;;;;;;;3.35;1.48;;;26.70;99.90;;;;;;4941828;29;20051;-71
2022/06/26 09:55:54;;;;;;;3.03;1.40;;;26.60;99.90;;;;;;4941709;29;20063;-70
2022/06/26 09:58:20;;;;;;;2.83;1.50;;;26.60;99.90;;;;;;4957041;29;20142;-71
2022/06/26 10:06:26;;;;;;;3.60;1.40;;;26.40;99.80;;;;;;4933367;29;21095;-69
2022/06/26 10:08:56;;;;;;;3.90;1.60;;;26.00;99.90;;;;;;4940192;29;20129;-70
2022/06/26 10:11:24;;;;;;;4.25;1.70;;;25.70;99.90;;;;;;4958205;28;20467;-70
2022/06/26 10:13:54;;;;;;;3.50;1.35;;;25.80;99.90;;;;;;5017589;28;20042;-71
2022/06/26 10:16:32;;;;;;;2.97;1.40;;;26.00;99.90;;;;;;4999530;28;20425;-72
2022/06/26 10:19:25;;;;;;;3.83;1.42;;;26.10;99.90;;;;;;4999899;28;20042;-72
2022/06/26 10:21:51;;;;;;;4.03;1.60;;;25.90;99.90;;;;;;4981053;28;20136;-72
2022/06/26 10:24:17;;;;;;;4.57;1.58;;;25.80;99.90;;;;;;4982493;28;20137;-71
2022/06/26 10:26:57;;;;;;;4.35;1.50;;;25.90;99.90;;;;;;5000182;28;20121;-70
2022/06/26 10:29:40;;;;;;;3.60;1.67;;;26.10;99.90;;;;;;4999976;28;20053;-69
2022/06/26 10:32:09;;;;;;;5.13;1.75;;;26.40;99.90;;;;;;4999948;28;20069;-69
2022/06/26 10:34:36;;;;;;;2.17;1.40;;;26.70;99.90;;;;;;5016976;28;20049;-70
2022/06/26 10:37:10;;;;;;;4.78;1.40;;;27.00;99.90;;;;;;5000121;28;20129;-69
2022/06/26 10:39:38;;;;;;;5.78;1.83;;;27.10;99.10;;;;;;4998835;28;20459;-69
2022/06/26 10:45:12;;;;;;;3.25;1.70;;;26.80;99.30;;;;;;5000076;28;20054;-69
2022/06/26 10:47:44;;;;;;;4.20;1.45;;;26.50;98.60;;;;;;5017226;28;20053;-70
2022/06/26 10:50:31;;;;;;;3.22;1.10;;;26.30;99.20;;;;;;4999704;28;20478;-70
2022/06/26 10:53:23;;;;;;;2.13;1.15;;;26.20;99.30;;;;;;4999949;28;20061;-69
2022/06/26 10:56:00;;;;;;;4.05;1.42;;;26.30;99.60;;;;;;4989330;28;20049;-70
2022/06/26 10:58:35;;;;;;;5.50;1.70;;;26.30;99.70;;;;;;4999440;28;20050;-70
2022/06/26 11:01:04;;;;;;;3.90;1.42;;;26.20;99.10;;;;;;5015836;28;20078;-70
2022/06/26 11:03:30;;;;;;;2.03;1.13;;;26.20;99.40;;;;;;4999827;28;20100;-71
2022/06/26 11:05:56;;;;;;;2.92;1.40;;;26.10;98.90;;;;;;5017037;28;20045;-72
2022/06/26 11:08:30;;;;;;;5.18;1.35;;;26.10;99.40;;;;;;5016959;28;20044;-70
2022/06/26 11:11:14;;;;;;;2.38;1.15;;;26.00;98.80;;;;;;4999404;28;20362;-72
2022/06/26 11:13:58;;;;;;;2.28;1.20;;;26.20;98.70;;;;;;5015531;28;20450;-70
2022/06/26 11:16:43;;;;;;;4.80;2.75;;;26.30;98.60;;;;;;4998243;28;20065;-72
2022/06/26 11:19:23;;;;;;;4.35;1.80;;;26.40;99.30;;;;;;5015442;28;20046;-71
2022/06/26 11:21:49;;;;;;;4.57;2.40;;;26.70;99.20;;;;;;4999375;28;20363;-72
2022/06/26 11:24:15;;;;;;;5.65;2.20;;;26.70;97.90;;;;;;5015851;28;20049;-71
2022/06/26 11:26:41;;;;;;;3.70;1.65;;;26.80;99.20;;;;;;5016011;28;20053;-70
2022/06/26 11:29:08;;;;;;;4.63;1.83;;;26.80;98.80;;;;;;4998537;28;20050;-70
2022/06/26 11:31:35;;;;;;;3.28;1.60;;;26.90;98.70;;;;;;4999000;28;20116;-71
2022/06/26 11:34:11;;;;;;;7.57;3.17;;;27.00;98.20;;;;;;5016758;28;20054;-69
2022/06/26 11:36:49;;;;;;;7.30;3.97;;;27.00;98.40;;;;;;4998801;28;20062;-69
2022/06/26 11:39:15;;;;;;;3.20;1.88;;;26.90;97.50;;;;;;4999402;28;20054;-70
2022/06/26 11:41:40;;;;;;;4.07;1.60;;;26.70;98.10;;;;;;4999059;28;20048;-69
2022/06/26 11:44:06;;;;;;;5.70;1.90;;;26.80;98.70;;;;;;5015788;28;20042;-70
2022/06/26 11:46:32;;;;;;;2.63;1.40;;;26.70;98.00;;;;;;5015860;28;20111;-69
2022/06/26 11:48:57;;;;;;;4.20;1.67;;;26.80;98.30;;;;;;5016591;28;20073;-70
2022/06/26 11:51:23;;;;;;;4.03;1.83;;;27.00;97.70;;;;;;5016025;28;20058;-69
2022/06/26 11:53:51;;;;;;;3.50;1.77;;;27.10;98.50;;;;;;4998597;28;20135;-72
2022/06/26 11:56:37;;;;;;;3.50;1.33;;;27.40;98.60;;;;;;5015827;28;20041;-69
2022/06/26 11:59:03;;;;;;;4.63;2.00;;;27.50;97.50;;;;;;5013935;28;20057;-71
2022/06/26 12:01:34;;;;;;;3.22;1.48;;;27.40;98.10;;;;;;4998775;28;20446;-70
2022/06/26 12:04:00;;;;;;;7.78;1.30;;;27.40;97.90;;;;;;4987855;28;20046;-71
2022/06/26 12:06:36;;;;;;;3.50;1.58;;;27.40;98.30;;;;;;4998436;28;20038;-69
2022/06/26 12:09:20;;;;;;;4.30;2.55;;;27.40;98.20;;;;;;4998143;28;20088;-70
2022/06/26 12:11:50;;;;;;;6.40;1.45;;;27.50;98.40;;;;;;4998480;28;20049;-71
2022/06/26 12:14:17;;;;;;;2.47;1.33;;;27.30;98.00;;;;;;4998917;28;20058;-70
2022/06/26 12:16:45;;;;;;;4.07;1.65;;;27.40;98.30;;;;;;5015873;28;20053;-72
2022/06/26 12:19:11;;;;;;;5.05;1.35;;;27.40;98.60;;;;;;4998292;28;20084;-71
2022/06/26 12:21:37;;;;;;;4.20;1.23;;;27.40;97.70;;;;;;4997992;28;20054;-71
2022/06/26 12:24:13;;;;;;;5.82;1.10;;;27.50;98.10;;;;;;4997950;28;20137;-71
2022/06/26 12:26:40;;;;;;;3.22;1.48;;;27.50;97.20;;;;;;4995178;28;20065;-70
2022/06/26 12:29:14;;;;;;;2.15;1.15;;;27.40;97.30;;;;;;4978883;28;20360;-70
2022/06/26 12:31:40;;;;;;;5.00;1.30;;;27.50;98.10;;;;;;4978194;28;20137;-69
2022/06/26 12:34:07;;;;;;;2.95;1.48;;;27.50;97.50;;;;;;4995608;28;20108;-70
2022/06/26 12:36:33;;;;;;;2.65;1.48;;;27.50;97.90;;;;;;4996345;28;20065;-71
2022/06/26 12:38:59;;;;;;;5.47;1.52;;;27.70;97.80;;;;;;4979956;28;20046;-71
2022/06/26 12:41:25;;;;;;;5.47;1.40;;;27.50;97.30;;;;;;4980593;28;20060;-70
2022/06/26 12:43:53;;;;;;;5.80;1.63;;;27.50;97.10;;;;;;4981977;28;20386;-69
2022/06/26 12:46:20;;;;;;;2.83;1.30;;;27.40;96.70;;;;;;4997942;28;20136;-70
2022/06/26 12:48:46;;;;;;;2.78;1.20;;;27.40;97.70;;;;;;4997245;28;20108;-70
2022/06/26 12:51:13;;;;;;;2.28;1.20;;;27.60;98.40;;;;;;5015043;28;20097;-69
2022/06/26 12:53:40;;;;;;;4.30;1.30;;;27.50;97.80;;;;;;4998051;28;20080;-72
2022/06/26 12:56:05;;;;;;;2.70;1.10;;;27.20;96.90;;;;;;4997362;28;20136;-70
2022/06/26 12:58:31;;;;;;;4.50;1.25;;;27.40;97.90;;;;;;4997897;28;20121;-70
2022/06/26 13:00:57;;;;;;;2.80;1.30;;;27.40;97.60;;;;;;4998010;28;20060;-70